sensor_id;sensor_type;location;lat;lon;timestamp;P1;durP1;ratioP1;P2;durP2;ratioP2
22254;SDS011;11296;42.684;23.322;2023-02-15T00:01:26;48.93;;;26.30;;
22254;SDS011;11296;42.684;23.322;2023-02-15T00:03:52;44.43;;;23.23;;
22254;SDS011;11296;42.684;23.322;2023-02-15T00:06:18;45.90;;;24.83;;
22254;SDS011;11296;42.684;23.322;2023-02-15T00:08:46;44.97;;;23.90;;
22254;SDS011;11296;42.684;23.322;2023-02-15T00:11:13;43.30;;;24.20;;
22254;SDS011;11296;42.684;23.322;2023-02-15T00:13:39;43.17;;;24.23;;
22254;SDS011;11296;42.684;23.322;2023-02-15T00:16:11;38.70;;;21.13;;
22254;SDS011;11296;42.684;23.322;2023-02-15T00:18:51;40.87;;;23.83;;
22254;SDS011;11296;42.684;23.322;2023-02-15T00:21:17;44.13;;;25.13;;
22254;SDS011;11296;42.684;23.322;2023-02-15T00:23:42;43.33;;;25.20;;
22254;SDS011;11296;42.684;23.322;2023-02-15T00:26:12;41.90;;;24.50;;
22254;SDS011;11296;42.684;23.322;2023-02-15T00:28:41;44.33;;;25.07;;
22254;SDS011;11296;42.684;23.322;2023-02-15T00:31:07;42.93;;;25.10;;
22254;SDS011;11296;42.684;23.322;2023-02-15T00:33:34;42.67;;;24.73;;
22254;SDS011;11296;42.684;23.322;2023-02-15T00:36:00;45.90;;;24.73;;
22254;SDS011;11296;42.684;23.322;2023-02-15T00:38:29;43.80;;;24.80;;
22254;SDS011;11296;42.684;23.322;2023-02-15T00:40:59;46.03;;;25.13;;
22254;SDS011;11296;42.684;23.322;2023-02-15T00:43:28;44.37;;;25.37;;
22254;SDS011;11296;42.684;23.322;2023-02-15T00:45:54;44.30;;;24.50;;
22254;SDS011;11296;42.684;23.322;2023-02-15T00:48:20;44.63;;;25.33;;
22254;SDS011;11296;42.684;23.322;2023-02-15T00:50:49;40.60;;;21.87;;
22254;SDS011;11296;42.684;23.322;2023-02-15T00:53:18;38.37;;;23.47;;
22254;SDS011;11296;42.684;23.322;2023-02-15T00:55:45;44.20;;;24.43;;
22254;SDS011;11296;42.684;23.322;2023-02-15T00:58:12;42.47;;;23.80;;
22254;SDS011;11296;42.684;23.322;2023-02-15T01:00:38;44.03;;;24.80;;
22254;SDS011;11296;42.684;23.322;2023-02-15T01:03:05;43.70;;;24.50;;
22254;SDS011;11296;42.684;23.322;2023-02-15T01:05:30;46.30;;;25.27;;
22254;SDS011;11296;42.684;23.322;2023-02-15T01:07:58;42.27;;;23.90;;
22254;SDS011;11296;42.684;23.322;2023-02-15T01:10:27;42.13;;;24.97;;
22254;SDS011;11296;42.684;23.322;2023-02-15T01:12:56;41.50;;;22.37;;
22254;SDS011;11296;42.684;23.322;2023-02-15T01:15:25;39.53;;;22.40;;
22254;SDS011;11296;42.684;23.322;2023-02-15T01:17:52;41.03;;;22.47;;
22254;SDS011;11296;42.684;23.322;2023-02-15T01:20:20;40.90;;;24.07;;
22254;SDS011;11296;42.684;23.322;2023-02-15T01:22:48;40.93;;;22.83;;
22254;SDS011;11296;42.684;23.322;2023-02-15T01:25:22;39.50;;;23.50;;
22254;SDS011;11296;42.684;23.322;2023-02-15T01:27:48;38.63;;;20.27;;
22254;SDS011;11296;42.684;23.322;2023-02-15T01:30:14;39.47;;;23.30;;
22254;SDS011;11296;42.684;23.322;2023-02-15T01:32:40;40.17;;;23.53;;
22254;SDS011;11296;42.684;23.322;2023-02-15T01:35:07;42.77;;;24.57;;
22254;SDS011;11296;42.684;23.322;2023-02-15T01:37:33;40.43;;;24.07;;
22254;SDS011;11296;42.684;23.322;2023-02-15T01:39:59;39.77;;;23.00;;
22254;SDS011;11296;42.684;23.322;2023-02-15T01:42:25;37.87;;;22.93;;
22254;SDS011;11296;42.684;23.322;2023-02-15T01:44:54;41.90;;;24.60;;
22254;SDS011;11296;42.684;23.322;2023-02-15T01:50:09;38.70;;;23.47;;
22254;SDS011;11296;42.684;23.322;2023-02-15T01:52:36;39.13;;;23.00;;
22254;SDS011;11296;42.684;23.322;2023-02-15T01:55:03;40.27;;;23.33;;
22254;SDS011;11296;42.684;23.322;2023-02-15T01:57:29;40.43;;;23.20;;
22254;SDS011;11296;42.684;23.322;2023-02-15T01:59:56;45.03;;;24.23;;
22254;SDS011;11296;42.684;23.322;2023-02-15T02:02:22;37.37;;;21.87;;
22254;SDS011;11296;42.684;23.322;2023-02-15T02:04:53;39.43;;;23.50;;
22254;SDS011;11296;42.684;23.322;2023-02-15T02:07:21;41.93;;;23.70;;
22254;SDS011;11296;42.684;23.322;2023-02-15T02:09:47;40.93;;;23.57;;
22254;SDS011;11296;42.684;23.322;2023-02-15T02:12:15;39.63;;;22.57;;
22254;SDS011;11296;42.684;23.322;2023-02-15T02:14:43;40.27;;;21.17;;
22254;SDS011;11296;42.684;23.322;2023-02-15T02:43:21;36.93;;;22.47;;
22254;SDS011;11296;42.684;23.322;2023-02-15T02:45:55;35.33;;;19.97;;
22254;SDS011;11296;42.684;23.322;2023-02-15T02:48:23;36.13;;;20.53;;
22254;SDS011;11296;42.684;23.322;2023-02-15T02:50:49;36.33;;;20.83;;
22254;SDS011;11296;42.684;23.322;2023-02-15T02:53:17;38.33;;;22.47;;
22254;SDS011;11296;42.684;23.322;2023-02-15T03:03:36;36.10;;;20.53;;
22254;SDS011;11296;42.684;23.322;2023-02-15T03:06:21;33.67;;;19.90;;
22254;SDS011;11296;42.684;23.322;2023-02-15T03:08:51;37.50;;;21.83;;
22254;SDS011;11296;42.684;23.322;2023-02-15T03:11:18;36.80;;;21.63;;
22254;SDS011;11296;42.684;23.322;2023-02-15T03:13:46;35.03;;;21.67;;
22254;SDS011;11296;42.684;23.322;2023-02-15T03:16:15;37.30;;;21.93;;
22254;SDS011;11296;42.684;23.322;2023-02-15T03:18:52;37.73;;;21.40;;
22254;SDS011;11296;42.684;23.322;2023-02-15T03:21:24;38.23;;;19.53;;
22254;SDS011;11296;42.684;23.322;2023-02-15T03:23:53;36.47;;;21.07;;
22254;SDS011;11296;42.684;23.322;2023-02-15T03:26:19;37.23;;;21.47;;
22254;SDS011;11296;42.684;23.322;2023-02-15T03:28:45;36.57;;;20.37;;
22254;SDS011;11296;42.684;23.322;2023-02-15T03:31:15;35.53;;;22.57;;
22254;SDS011;11296;42.684;23.322;2023-02-15T03:33:48;35.43;;;21.70;;
22254;SDS011;11296;42.684;23.322;2023-02-15T03:41:53;33.87;;;20.73;;
22254;SDS011;11296;42.684;23.322;2023-02-15T03:44:25;34.23;;;21.10;;
22254;SDS011;11296;42.684;23.322;2023-02-15T03:46:59;32.70;;;19.70;;
22254;SDS011;11296;42.684;23.322;2023-02-15T03:50:12;36.93;;;21.07;;
22254;SDS011;11296;42.684;23.322;2023-02-15T03:52:12;37.20;;;21.57;;
22254;SDS011;11296;42.684;23.322;2023-02-15T03:54:42;36.10;;;20.47;;
22254;SDS011;11296;42.684;23.322;2023-02-15T03:57:16;34.03;;;20.93;;
22254;SDS011;11296;42.684;23.322;2023-02-15T04:00:02;35.70;;;20.53;;
22254;SDS011;11296;42.684;23.322;2023-02-15T04:05:22;35.53;;;20.73;;
22254;SDS011;11296;42.684;23.322;2023-02-15T04:07:47;35.43;;;21.00;;
22254;SDS011;11296;42.684;23.322;2023-02-15T04:10:13;32.80;;;20.63;;
22254;SDS011;11296;42.684;23.322;2023-02-15T04:13:00;32.30;;;19.53;;
22254;SDS011;11296;42.684;23.322;2023-02-15T04:15:28;36.10;;;20.53;;
22254;SDS011;11296;42.684;23.322;2023-02-15T04:18:14;32.70;;;20.03;;
22254;SDS011;11296;42.684;23.322;2023-02-15T04:20:42;34.47;;;20.47;;
22254;SDS011;11296;42.684;23.322;2023-02-15T04:23:27;36.83;;;21.07;;
22254;SDS011;11296;42.684;23.322;2023-02-15T04:26:11;34.37;;;21.00;;
22254;SDS011;11296;42.684;23.322;2023-02-15T04:28:36;34.13;;;20.47;;
22254;SDS011;11296;42.684;23.322;2023-02-15T04:31:06;34.10;;;20.90;;
22254;SDS011;11296;42.684;23.322;2023-02-15T04:33:31;34.60;;;19.90;;
22254;SDS011;11296;42.684;23.322;2023-02-15T04:35:57;36.07;;;20.43;;
22254;SDS011;11296;42.684;23.322;2023-02-15T04:38:22;34.73;;;20.93;;
22254;SDS011;11296;42.684;23.322;2023-02-15T04:40:51;31.40;;;17.23;;
22254;SDS011;11296;42.684;23.322;2023-02-15T04:43:17;33.87;;;20.50;;
22254;SDS011;11296;42.684;23.322;2023-02-15T04:45:47;34.03;;;20.63;;
22254;SDS011;11296;42.684;23.322;2023-02-15T04:48:13;35.00;;;20.13;;
22254;SDS011;11296;42.684;23.322;2023-02-15T04:50:38;36.33;;;20.83;;
22254;SDS011;11296;42.684;23.322;2023-02-15T04:53:04;35.73;;;21.13;;
22254;SDS011;11296;42.684;23.322;2023-02-15T04:55:29;36.97;;;21.27;;
22254;SDS011;11296;42.684;23.322;2023-02-15T04:57:55;35.97;;;20.67;;
22254;SDS011;11296;42.684;23.322;2023-02-15T05:00:20;33.60;;;20.03;;
22254;SDS011;11296;42.684;23.322;2023-02-15T05:02:46;37.37;;;22.27;;
22254;SDS011;11296;42.684;23.322;2023-02-15T05:05:11;35.47;;;20.30;;
22254;SDS011;11296;42.684;23.322;2023-02-15T05:07:38;34.80;;;19.90;;
22254;SDS011;11296;42.684;23.322;2023-02-15T05:10:06;34.43;;;20.47;;
22254;SDS011;11296;42.684;23.322;2023-02-15T05:12:33;36.20;;;21.83;;
22254;SDS011;11296;42.684;23.322;2023-02-15T05:15:03;37.03;;;21.63;;
22254;SDS011;11296;42.684;23.322;2023-02-15T05:17:28;34.70;;;20.07;;
22254;SDS011;11296;42.684;23.322;2023-02-15T05:19:54;34.43;;;20.73;;
22254;SDS011;11296;42.684;23.322;2023-02-15T05:22:26;36.40;;;20.50;;
22254;SDS011;11296;42.684;23.322;2023-02-15T05:24:54;35.00;;;20.83;;
22254;SDS011;11296;42.684;23.322;2023-02-15T05:27:38;36.17;;;21.03;;
22254;SDS011;11296;42.684;23.322;2023-02-15T05:30:22;41.33;;;23.83;;
22254;SDS011;11296;42.684;23.322;2023-02-15T05:32:48;43.43;;;24.70;;
22254;SDS011;11296;42.684;23.322;2023-02-15T05:35:14;32.47;;;18.27;;
22254;SDS011;11296;42.684;23.322;2023-02-15T05:37:56;34.17;;;20.30;;
22254;SDS011;11296;42.684;23.322;2023-02-15T05:40:21;37.47;;;21.53;;
22254;SDS011;11296;42.684;23.322;2023-02-15T05:42:47;37.83;;;22.27;;
22254;SDS011;11296;42.684;23.322;2023-02-15T05:45:12;36.97;;;20.90;;
22254;SDS011;11296;42.684;23.322;2023-02-15T05:47:40;41.00;;;22.03;;
22254;SDS011;11296;42.684;23.322;2023-02-15T05:50:07;35.50;;;20.57;;
22254;SDS011;11296;42.684;23.322;2023-02-15T05:52:34;36.00;;;21.33;;
22254;SDS011;11296;42.684;23.322;2023-02-15T05:55:01;36.43;;;20.23;;
22254;SDS011;11296;42.684;23.322;2023-02-15T05:57:27;35.57;;;20.87;;
22254;SDS011;11296;42.684;23.322;2023-02-15T05:59:58;35.57;;;20.80;;
22254;SDS011;11296;42.684;23.322;2023-02-15T06:02:37;35.30;;;20.67;;
22254;SDS011;11296;42.684;23.322;2023-02-15T06:05:04;30.40;;;17.80;;
22254;SDS011;11296;42.684;23.322;2023-02-15T06:07:29;36.07;;;20.20;;
22254;SDS011;11296;42.684;23.322;2023-02-15T06:10:03;35.67;;;21.60;;
22254;SDS011;11296;42.684;23.322;2023-02-15T06:12:33;32.97;;;19.63;;
22254;SDS011;11296;42.684;23.322;2023-02-15T06:18:57;33.50;;;20.00;;
22254;SDS011;11296;42.684;23.322;2023-02-15T06:24:36;35.63;;;19.33;;
22254;SDS011;11296;42.684;23.322;2023-02-15T06:27:01;33.03;;;19.13;;
22254;SDS011;11296;42.684;23.322;2023-02-15T06:29:31;28.97;;;17.13;;
22254;SDS011;11296;42.684;23.322;2023-02-15T06:32:03;33.93;;;19.93;;
22254;SDS011;11296;42.684;23.322;2023-02-15T06:34:28;32.40;;;19.23;;
22254;SDS011;11296;42.684;23.322;2023-02-15T06:36:54;27.77;;;14.93;;
22254;SDS011;11296;42.684;23.322;2023-02-15T06:39:20;34.47;;;19.20;;
22254;SDS011;11296;42.684;23.322;2023-02-15T06:41:45;35.80;;;19.27;;
22254;SDS011;11296;42.684;23.322;2023-02-15T06:44:19;33.13;;;19.13;;
22254;SDS011;11296;42.684;23.322;2023-02-15T06:46:45;32.87;;;19.27;;
22254;SDS011;11296;42.684;23.322;2023-02-15T06:49:10;31.87;;;19.53;;
22254;SDS011;11296;42.684;23.322;2023-02-15T06:51:36;31.00;;;17.73;;
22254;SDS011;11296;42.684;23.322;2023-02-15T06:54:01;32.73;;;18.97;;
22254;SDS011;11296;42.684;23.322;2023-02-15T06:56:30;30.87;;;17.80;;
22254;SDS011;11296;42.684;23.322;2023-02-15T06:58:55;29.40;;;17.73;;
22254;SDS011;11296;42.684;23.322;2023-02-15T07:01:21;26.73;;;14.63;;
22254;SDS011;11296;42.684;23.322;2023-02-15T07:06:41;28.37;;;17.47;;
22254;SDS011;11296;42.684;23.322;2023-02-15T07:09:06;30.30;;;17.30;;
22254;SDS011;11296;42.684;23.322;2023-02-15T07:11:33;31.00;;;18.27;;
22254;SDS011;11296;42.684;23.322;2023-02-15T07:14:17;26.77;;;15.83;;
22254;SDS011;11296;42.684;23.322;2023-02-15T07:16:43;28.97;;;17.57;;
22254;SDS011;11296;42.684;23.322;2023-02-15T07:19:08;28.60;;;17.87;;
22254;SDS011;11296;42.684;23.322;2023-02-15T07:21:34;30.70;;;18.23;;
22254;SDS011;11296;42.684;23.322;2023-02-15T07:24:03;29.27;;;18.43;;
22254;SDS011;11296;42.684;23.322;2023-02-15T07:26:28;28.70;;;17.83;;
22254;SDS011;11296;42.684;23.322;2023-02-15T07:28:56;27.47;;;16.47;;
22254;SDS011;11296;42.684;23.322;2023-02-15T07:31:39;27.37;;;17.47;;
22254;SDS011;11296;42.684;23.322;2023-02-15T07:34:07;25.30;;;15.60;;
22254;SDS011;11296;42.684;23.322;2023-02-15T07:36:32;29.93;;;17.10;;
22254;SDS011;11296;42.684;23.322;2023-02-15T07:38:59;28.60;;;17.20;;
22254;SDS011;11296;42.684;23.322;2023-02-15T07:41:26;24.13;;;14.93;;
22254;SDS011;11296;42.684;23.322;2023-02-15T07:43:52;27.87;;;16.63;;
22254;SDS011;11296;42.684;23.322;2023-02-15T07:46:19;24.17;;;15.40;;
22254;SDS011;11296;42.684;23.322;2023-02-15T07:48:46;24.93;;;16.50;;
22254;SDS011;11296;42.684;23.322;2023-02-15T07:51:12;27.57;;;15.83;;
22254;SDS011;11296;42.684;23.322;2023-02-15T07:53:37;28.67;;;16.80;;
22254;SDS011;11296;42.684;23.322;2023-02-15T07:56:07;28.03;;;17.63;;
22254;SDS011;11296;42.684;23.322;2023-02-15T07:58:34;32.00;;;19.00;;
22254;SDS011;11296;42.684;23.322;2023-02-15T08:01:22;28.13;;;16.83;;
22254;SDS011;11296;42.684;23.322;2023-02-15T08:03:48;26.93;;;16.67;;
22254;SDS011;11296;42.684;23.322;2023-02-15T08:06:13;27.43;;;16.80;;
22254;SDS011;11296;42.684;23.322;2023-02-15T08:08:40;26.43;;;16.90;;
22254;SDS011;11296;42.684;23.322;2023-02-15T08:11:07;28.97;;;16.50;;
22254;SDS011;11296;42.684;23.322;2023-02-15T08:13:57;27.60;;;16.87;;
22254;SDS011;11296;42.684;23.322;2023-02-15T08:19:23;26.97;;;16.80;;
22254;SDS011;11296;42.684;23.322;2023-02-15T08:21:49;26.87;;;16.40;;
22254;SDS011;11296;42.684;23.322;2023-02-15T08:24:16;28.33;;;16.10;;
22254;SDS011;11296;42.684;23.322;2023-02-15T08:26:43;23.50;;;14.10;;
22254;SDS011;11296;42.684;23.322;2023-02-15T08:29:13;27.03;;;16.50;;
22254;SDS011;11296;42.684;23.322;2023-02-15T08:31:39;25.43;;;15.67;;
22254;SDS011;11296;42.684;23.322;2023-02-15T08:34:09;25.10;;;15.87;;
22254;SDS011;11296;42.684;23.322;2023-02-15T08:36:34;29.27;;;16.77;;
22254;SDS011;11296;42.684;23.322;2023-02-15T08:39:02;24.43;;;16.00;;
22254;SDS011;11296;42.684;23.322;2023-02-15T08:41:28;26.03;;;16.00;;
22254;SDS011;11296;42.684;23.322;2023-02-15T08:43:58;25.23;;;15.93;;
22254;SDS011;11296;42.684;23.322;2023-02-15T08:46:24;28.77;;;16.50;;
22254;SDS011;11296;42.684;23.322;2023-02-15T08:48:51;27.27;;;15.30;;
22254;SDS011;11296;42.684;23.322;2023-02-15T08:54:29;22.37;;;13.87;;
22254;SDS011;11296;42.684;23.322;2023-02-15T08:56:54;24.00;;;15.13;;
22254;SDS011;11296;42.684;23.322;2023-02-15T08:59:21;22.77;;;14.60;;
22254;SDS011;11296;42.684;23.322;2023-02-15T09:01:48;23.00;;;13.90;;
22254;SDS011;11296;42.684;23.322;2023-02-15T09:04:29;28.00;;;16.13;;
22254;SDS011;11296;42.684;23.322;2023-02-15T09:06:55;24.60;;;15.13;;
22254;SDS011;11296;42.684;23.322;2023-02-15T09:09:39;24.53;;;14.67;;
22254;SDS011;11296;42.684;23.322;2023-02-15T09:12:05;23.43;;;14.13;;
22254;SDS011;11296;42.684;23.322;2023-02-15T09:14:30;22.90;;;14.57;;
22254;SDS011;11296;42.684;23.322;2023-02-15T09:16:56;18.80;;;11.80;;
22254;SDS011;11296;42.684;23.322;2023-02-15T09:19:24;21.93;;;14.63;;
22254;SDS011;11296;42.684;23.322;2023-02-15T09:21:50;22.90;;;13.90;;
22254;SDS011;11296;42.684;23.322;2023-02-15T09:24:18;22.97;;;14.80;;
22254;SDS011;11296;42.684;23.322;2023-02-15T09:26:46;24.30;;;15.20;;
22254;SDS011;11296;42.684;23.322;2023-02-15T09:29:12;22.80;;;15.47;;
22254;SDS011;11296;42.684;23.322;2023-02-15T09:31:42;27.87;;;16.30;;
22254;SDS011;11296;42.684;23.322;2023-02-15T09:34:09;22.10;;;14.90;;
22254;SDS011;11296;42.684;23.322;2023-02-15T09:36:38;24.43;;;15.53;;
22254;SDS011;11296;42.684;23.322;2023-02-15T09:44:12;24.00;;;13.97;;
22254;SDS011;11296;42.684;23.322;2023-02-15T10:00:18;22.93;;;14.33;;
22254;SDS011;11296;42.684;23.322;2023-02-15T10:05:20;25.17;;;15.47;;
22254;SDS011;11296;42.684;23.322;2023-02-15T10:26:07;22.63;;;15.30;;
22254;SDS011;11296;42.684;23.322;2023-02-15T10:34:19;23.90;;;16.33;;
22254;SDS011;11296;42.684;23.322;2023-02-15T10:44:58;24.33;;;15.37;;
22254;SDS011;11296;42.684;23.322;2023-02-15T10:50:23;25.53;;;16.50;;
22254;SDS011;11296;42.684;23.322;2023-02-15T10:52:59;26.70;;;16.63;;
22254;SDS011;11296;42.684;23.322;2023-02-15T10:55:47;25.07;;;16.50;;
22254;SDS011;11296;42.684;23.322;2023-02-15T10:58:29;24.43;;;16.67;;
22254;SDS011;11296;42.684;23.322;2023-02-15T11:06:34;20.10;;;14.83;;
22254;SDS011;11296;42.684;23.322;2023-02-15T11:09:08;22.57;;;15.73;;
22254;SDS011;11296;42.684;23.322;2023-02-15T11:11:41;25.03;;;17.03;;
22254;SDS011;11296;42.684;23.322;2023-02-15T11:16:49;23.70;;;16.40;;
22254;SDS011;11296;42.684;23.322;2023-02-15T11:22:23;25.50;;;16.97;;
22254;SDS011;11296;42.684;23.322;2023-02-15T11:24:51;22.23;;;15.87;;
22254;SDS011;11296;42.684;23.322;2023-02-15T11:27:24;22.10;;;16.20;;
22254;SDS011;11296;42.684;23.322;2023-02-15T11:29:53;23.23;;;15.90;;
22254;SDS011;11296;42.684;23.322;2023-02-15T11:32:32;22.00;;;14.20;;
22254;SDS011;11296;42.684;23.322;2023-02-15T11:35:18;24.13;;;15.83;;
22254;SDS011;11296;42.684;23.322;2023-02-15T11:40:51;23.00;;;16.73;;
22254;SDS011;11296;42.684;23.322;2023-02-15T11:43:37;23.10;;;16.60;;
22254;SDS011;11296;42.684;23.322;2023-02-15T11:52:23;24.63;;;17.53;;
22254;SDS011;11296;42.684;23.322;2023-02-15T11:55:25;24.30;;;17.63;;
22254;SDS011;11296;42.684;23.322;2023-02-15T12:01:48;21.03;;;15.63;;
22254;SDS011;11296;42.684;23.322;2023-02-15T12:10:25;20.80;;;13.93;;
22254;SDS011;11296;42.684;23.322;2023-02-15T12:12:45;22.53;;;16.10;;
22254;SDS011;11296;42.684;23.322;2023-02-15T12:15:46;21.60;;;15.53;;
22254;SDS011;11296;42.684;23.322;2023-02-15T12:21:39;19.83;;;15.00;;
22254;SDS011;11296;42.684;23.322;2023-02-15T12:24:17;22.73;;;16.60;;
22254;SDS011;11296;42.684;23.322;2023-02-15T12:27:32;22.50;;;16.73;;
22254;SDS011;11296;42.684;23.322;2023-02-15T12:29:46;20.63;;;16.07;;
22254;SDS011;11296;42.684;23.322;2023-02-15T12:35:38;20.93;;;15.80;;
22254;SDS011;11296;42.684;23.322;2023-02-15T12:38:48;22.57;;;16.90;;
22254;SDS011;11296;42.684;23.322;2023-02-15T12:41:36;21.67;;;16.20;;
22254;SDS011;11296;42.684;23.322;2023-02-15T12:48:20;21.17;;;16.40;;
22254;SDS011;11296;42.684;23.322;2023-02-15T12:54:46;23.43;;;17.53;;
22254;SDS011;11296;42.684;23.322;2023-02-15T12:58:15;19.43;;;15.93;;
22254;SDS011;11296;42.684;23.322;2023-02-15T13:04:31;20.67;;;15.27;;
22254;SDS011;11296;42.684;23.322;2023-02-15T13:10:33;24.50;;;15.73;;
22254;SDS011;11296;42.684;23.322;2023-02-15T13:19:50;21.47;;;16.90;;
22254;SDS011;11296;42.684;23.322;2023-02-15T13:22:31;24.00;;;17.67;;
22254;SDS011;11296;42.684;23.322;2023-02-15T13:31:52;23.10;;;17.20;;
22254;SDS011;11296;42.684;23.322;2023-02-15T13:34:43;25.30;;;18.50;;
22254;SDS011;11296;42.684;23.322;2023-02-15T13:45:45;23.50;;;16.77;;
22254;SDS011;11296;42.684;23.322;2023-02-15T13:57:32;24.03;;;16.10;;
22254;SDS011;11296;42.684;23.322;2023-02-15T14:32:04;23.57;;;17.40;;
22254;SDS011;11296;42.684;23.322;2023-02-15T14:35:00;23.57;;;18.17;;
22254;SDS011;11296;42.684;23.322;2023-02-15T14:43:14;24.53;;;17.10;;
22254;SDS011;11296;42.684;23.322;2023-02-15T14:45:49;25.20;;;18.07;;
22254;SDS011;11296;42.684;23.322;2023-02-15T14:48:33;26.30;;;17.77;;
22254;SDS011;11296;42.684;23.322;2023-02-15T15:02:55;26.87;;;18.83;;
22254;SDS011;11296;42.684;23.322;2023-02-15T15:05:45;24.63;;;18.30;;
22254;SDS011;11296;42.684;23.322;2023-02-15T15:08:37;29.00;;;19.00;;
22254;SDS011;11296;42.684;23.322;2023-02-15T15:14:08;25.00;;;17.23;;
22254;SDS011;11296;42.684;23.322;2023-02-15T15:19:57;26.93;;;17.77;;
22254;SDS011;11296;42.684;23.322;2023-02-15T15:22:11;27.87;;;18.63;;
22254;SDS011;11296;42.684;23.322;2023-02-15T15:29:55;29.60;;;19.97;;
22254;SDS011;11296;42.684;23.322;2023-02-15T15:32:27;35.07;;;20.60;;
22254;SDS011;11296;42.684;23.322;2023-02-15T15:37:33;31.00;;;19.27;;
22254;SDS011;11296;42.684;23.322;2023-02-15T15:47:47;30.23;;;18.43;;
22254;SDS011;11296;42.684;23.322;2023-02-15T15:50:21;31.70;;;19.43;;
22254;SDS011;11296;42.684;23.322;2023-02-15T15:52:51;28.10;;;18.50;;
22254;SDS011;11296;42.684;23.322;2023-02-15T15:55:21;31.70;;;19.27;;
22254;SDS011;11296;42.684;23.322;2023-02-15T15:57:48;35.33;;;20.90;;
22254;SDS011;11296;42.684;23.322;2023-02-15T16:03:01;34.87;;;20.90;;
22254;SDS011;11296;42.684;23.322;2023-02-15T16:05:38;34.77;;;22.50;;
22254;SDS011;11296;42.684;23.322;2023-02-15T16:08:08;33.23;;;21.97;;
22254;SDS011;11296;42.684;23.322;2023-02-15T16:10:38;39.20;;;22.33;;
22254;SDS011;11296;42.684;23.322;2023-02-15T16:13:04;34.27;;;20.63;;
22254;SDS011;11296;42.684;23.322;2023-02-15T16:15:34;32.03;;;20.60;;
22254;SDS011;11296;42.684;23.322;2023-02-15T16:18:05;34.57;;;21.23;;
22254;SDS011;11296;42.684;23.322;2023-02-15T16:20:35;33.10;;;21.00;;
22254;SDS011;11296;42.684;23.322;2023-02-15T16:28:32;35.13;;;21.63;;
22254;SDS011;11296;42.684;23.322;2023-02-15T16:31:05;38.73;;;23.30;;
22254;SDS011;11296;42.684;23.322;2023-02-15T16:33:37;40.03;;;22.83;;
22254;SDS011;11296;42.684;23.322;2023-02-15T16:36:04;37.20;;;23.13;;
22254;SDS011;11296;42.684;23.322;2023-02-15T16:45:40;37.33;;;22.57;;
22254;SDS011;11296;42.684;23.322;2023-02-15T16:52:24;37.93;;;21.87;;
22254;SDS011;11296;42.684;23.322;2023-02-15T16:55:17;38.10;;;22.93;;
22254;SDS011;11296;42.684;23.322;2023-02-15T16:57:45;36.10;;;21.87;;
22254;SDS011;11296;42.684;23.322;2023-02-15T17:00:40;40.77;;;23.67;;
22254;SDS011;11296;42.684;23.322;2023-02-15T17:05:56;35.10;;;22.90;;
22254;SDS011;11296;42.684;23.322;2023-02-15T17:08:43;38.10;;;22.67;;
22254;SDS011;11296;42.684;23.322;2023-02-15T17:11:22;36.67;;;23.27;;
22254;SDS011;11296;42.684;23.322;2023-02-15T17:16:28;39.97;;;24.40;;
22254;SDS011;11296;42.684;23.322;2023-02-15T17:18:55;38.60;;;23.77;;
22254;SDS011;11296;42.684;23.322;2023-02-15T17:21:30;37.97;;;22.93;;
22254;SDS011;11296;42.684;23.322;2023-02-15T17:24:00;40.67;;;23.20;;
22254;SDS011;11296;42.684;23.322;2023-02-15T17:26:37;31.33;;;17.07;;
22254;SDS011;11296;42.684;23.322;2023-02-15T17:32:23;39.90;;;23.83;;
22254;SDS011;11296;42.684;23.322;2023-02-15T17:40:43;45.47;;;26.83;;
22254;SDS011;11296;42.684;23.322;2023-02-15T17:43:20;47.43;;;26.20;;
22254;SDS011;11296;42.684;23.322;2023-02-15T17:45:55;47.07;;;27.73;;
22254;SDS011;11296;42.684;23.322;2023-02-15T17:48:56;48.33;;;27.33;;
22254;SDS011;11296;42.684;23.322;2023-02-15T17:51:22;44.63;;;27.17;;
22254;SDS011;11296;42.684;23.322;2023-02-15T17:53:50;49.50;;;28.07;;
22254;SDS011;11296;42.684;23.322;2023-02-15T17:56:35;45.83;;;26.73;;
22254;SDS011;11296;42.684;23.322;2023-02-15T17:59:06;44.07;;;26.63;;
22254;SDS011;11296;42.684;23.322;2023-02-15T18:01:32;43.87;;;26.00;;
22254;SDS011;11296;42.684;23.322;2023-02-15T18:04:17;40.17;;;24.00;;
22254;SDS011;11296;42.684;23.322;2023-02-15T18:07:06;41.43;;;23.43;;
22254;SDS011;11296;42.684;23.322;2023-02-15T18:09:57;41.83;;;23.17;;
22254;SDS011;11296;42.684;23.322;2023-02-15T18:12:43;38.00;;;22.63;;
22254;SDS011;11296;42.684;23.322;2023-02-15T18:15:28;42.13;;;24.00;;
22254;SDS011;11296;42.684;23.322;2023-02-15T18:18:04;37.47;;;22.63;;
22254;SDS011;11296;42.684;23.322;2023-02-15T18:20:37;46.20;;;22.50;;
22254;SDS011;11296;42.684;23.322;2023-02-15T18:23:03;39.50;;;23.13;;
22254;SDS011;11296;42.684;23.322;2023-02-15T18:25:28;37.97;;;22.20;;
22254;SDS011;11296;42.684;23.322;2023-02-15T18:27:54;42.40;;;24.50;;
22254;SDS011;11296;42.684;23.322;2023-02-15T18:30:25;40.13;;;23.73;;
22254;SDS011;11296;42.684;23.322;2023-02-15T18:33:04;39.50;;;23.10;;
22254;SDS011;11296;42.684;23.322;2023-02-15T18:35:35;38.73;;;22.77;;
22254;SDS011;11296;42.684;23.322;2023-02-15T18:38:03;38.43;;;21.47;;
22254;SDS011;11296;42.684;23.322;2023-02-15T18:40:42;34.57;;;20.77;;
22254;SDS011;11296;42.684;23.322;2023-02-15T18:43:11;38.70;;;21.93;;
22254;SDS011;11296;42.684;23.322;2023-02-15T18:45:37;39.63;;;22.63;;
22254;SDS011;11296;42.684;23.322;2023-02-15T18:51:04;38.33;;;22.00;;
22254;SDS011;11296;42.684;23.322;2023-02-15T18:53:40;39.23;;;21.57;;
22254;SDS011;11296;42.684;23.322;2023-02-15T18:56:13;34.23;;;19.83;;
22254;SDS011;11296;42.684;23.322;2023-02-15T18:58:39;35.57;;;20.93;;
22254;SDS011;11296;42.684;23.322;2023-02-15T19:01:13;38.27;;;20.90;;
22254;SDS011;11296;42.684;23.322;2023-02-15T19:06:53;34.47;;;20.57;;
22254;SDS011;11296;42.684;23.322;2023-02-15T19:09:22;36.83;;;21.90;;
22254;SDS011;11296;42.684;23.322;2023-02-15T19:12:10;37.87;;;21.67;;
22254;SDS011;11296;42.684;23.322;2023-02-15T19:14:55;39.47;;;22.10;;
22254;SDS011;11296;42.684;23.322;2023-02-15T19:17:33;33.97;;;20.13;;
22254;SDS011;11296;42.684;23.322;2023-02-15T19:20:20;36.60;;;21.80;;
22254;SDS011;11296;42.684;23.322;2023-02-15T19:22:49;34.53;;;21.43;;
22254;SDS011;11296;42.684;23.322;2023-02-15T19:25:22;38.73;;;22.53;;
22254;SDS011;11296;42.684;23.322;2023-02-15T19:27:59;36.87;;;21.83;;
22254;SDS011;11296;42.684;23.322;2023-02-15T19:30:29;38.77;;;22.53;;
22254;SDS011;11296;42.684;23.322;2023-02-15T19:33:00;37.00;;;20.93;;
22254;SDS011;11296;42.684;23.322;2023-02-15T19:35:36;36.10;;;20.67;;
22254;SDS011;11296;42.684;23.322;2023-02-15T19:38:10;35.50;;;20.97;;
22254;SDS011;11296;42.684;23.322;2023-02-15T19:40:55;33.23;;;20.23;;
22254;SDS011;11296;42.684;23.322;2023-02-15T19:43:26;40.43;;;23.10;;
22254;SDS011;11296;42.684;23.322;2023-02-15T19:45:57;39.73;;;23.03;;